Time;durP1;ratioP1;P1;durP2;ratioP2;P2;SDS_P1;SDS_P2;PMS_P1;PMS_P2;Temp;Humidity;BMP_temperature;BMP_pressure;BME280_temperature;BME280_humidity;BME280_pressure;Samples;Min_cycle;Max_cycle;Signal;HPM_P1;HPM_P2
2023/08/01 00:00:24;;;;;;;2.75;1.65;;;16.70;99.90;;;;;;5007205;28;20048;-78
2023/08/01 00:03:10;;;;;;;2.03;1.48;;;16.70;99.90;;;;;;5013954;28;20140;-78
2023/08/01 00:05:56;;;;;;;2.60;1.52;;;16.80;99.90;;;;;;4993810;28;20121;-78
2023/08/01 00:08:42;;;;;;;4.25;1.80;;;16.80;99.90;;;;;;4967383;28;20043;-78
2023/08/01 00:11:28;;;;;;;3.20;1.58;;;16.80;99.90;;;;;;5005779;28;20479;-78
2023/08/01 00:14:14;;;;;;;2.65;1.73;;;16.80;99.90;;;;;;5011398;28;20085;-79
2023/08/01 00:17:00;;;;;;;2.72;1.52;;;16.80;99.90;;;;;;4983932;28;20371;-78
2023/08/01 00:19:46;;;;;;;2.92;1.70;;;16.90;99.90;;;;;;4992117;28;20045;-78
2023/08/01 00:22:32;;;;;;;2.67;1.67;;;16.90;99.90;;;;;;5017837;28;20746;-79
2023/08/01 00:25:18;;;;;;;3.03;1.55;;;16.80;99.90;;;;;;5028889;28;20223;-78
2023/08/01 00:28:04;;;;;;;2.90;1.45;;;16.90;99.90;;;;;;5031615;28;20037;-78
2023/08/01 00:30:50;;;;;;;3.03;1.80;;;16.90;99.90;;;;;;5014980;28;20049;-78
2023/08/01 00:33:36;;;;;;;3.25;2.00;;;16.90;99.90;;;;;;5023053;28;20076;-78
2023/08/01 00:36:22;;;;;;;2.70;1.80;;;16.90;99.90;;;;;;5024616;28;20048;-78
2023/08/01 00:39:09;;;;;;;3.53;1.73;;;16.90;99.90;;;;;;5029989;28;20573;-78
2023/08/01 00:41:55;;;;;;;4.57;1.95;;;16.90;99.90;;;;;;5003814;28;20052;-78
2023/08/01 00:44:41;;;;;;;3.85;1.88;;;16.90;99.90;;;;;;5004023;28;20049;-78
2023/08/01 00:47:27;;;;;;;4.00;1.83;;;16.90;99.90;;;;;;5016116;28;20038;-78
2023/08/01 00:50:13;;;;;;;5.28;2.08;;;16.90;99.90;;;;;;5002897;28;20046;-78
2023/08/01 00:52:59;;;;;;;3.33;1.80;;;16.90;99.90;;;;;;5017642;28;20042;-78
2023/08/01 00:55:45;;;;;;;4.68;1.70;;;16.90;99.90;;;;;;5028665;28;20361;-79
2023/08/01 00:58:31;;;;;;;6.90;1.95;;;16.90;99.90;;;;;;5005251;28;20156;-78
2023/08/01 01:01:17;;;;;;;3.70;1.90;;;16.90;99.90;;;;;;5008540;28;20108;-79
2023/08/01 01:04:03;;;;;;;5.07;1.98;;;16.90;99.90;;;;;;5003748;28;20049;-78
2023/08/01 01:06:53;;;;;;;3.78;1.90;;;16.90;99.90;;;;;;4984237;28;20136;-79
2023/08/01 01:09:39;;;;;;;3.92;1.77;;;16.90;99.90;;;;;;4995495;28;20502;-78
2023/08/01 01:12:25;;;;;;;3.22;2.22;;;16.90;99.90;;;;;;5016867;28;20053;-79
2023/08/01 01:15:11;;;;;;;4.68;1.83;;;16.90;99.90;;;;;;5025390;28;20125;-79
2023/08/01 01:17:56;;;;;;;2.63;1.70;;;16.90;99.90;;;;;;5002435;28;20042;-78
2023/08/01 01:20:42;;;;;;;4.25;1.95;;;16.90;99.90;;;;;;4988882;28;20054;-79
2023/08/01 01:23:28;;;;;;;5.22;1.80;;;16.90;99.90;;;;;;4997061;28;20045;-79
2023/08/01 01:26:16;;;;;;;6.63;2.53;;;16.90;99.90;;;;;;5003601;28;20057;-79
2023/08/01 01:29:03;;;;;;;5.65;1.85;;;16.90;99.90;;;;;;5016192;28;20033;-79
2023/08/01 01:31:48;;;;;;;3.53;2.13;;;16.90;99.90;;;;;;5016724;28;20038;-79
2023/08/01 01:34:34;;;;;;;5.88;3.03;;;16.90;99.90;;;;;;5020250;28;20132;-79
2023/08/01 01:37:20;;;;;;;5.22;3.03;;;17.00;99.90;;;;;;5024239;28;20146;-78
2023/08/01 01:40:07;;;;;;;4.93;2.65;;;17.00;99.90;;;;;;5018848;28;20048;-76
2023/08/01 01:42:53;;;;;;;5.38;2.65;;;16.90;99.90;;;;;;5020188;28;20041;-76
2023/08/01 01:45:39;;;;;;;5.25;2.80;;;16.90;99.90;;;;;;5035993;28;20037;-76
2023/08/01 01:48:25;;;;;;;4.18;2.33;;;16.90;99.90;;;;;;5028549;28;20052;-76
2023/08/01 01:51:11;;;;;;;4.65;2.10;;;16.90;99.90;;;;;;5016152;28;20042;-76
2023/08/01 01:53:57;;;;;;;4.60;2.47;;;17.00;99.90;;;;;;5025818;28;20041;-77
2023/08/01 01:56:42;;;;;;;3.58;2.00;;;17.00;99.90;;;;;;5020702;28;20041;-77
2023/08/01 01:59:28;;;;;;;4.00;2.50;;;17.00;99.90;;;;;;5019813;28;20107;-76
2023/08/01 02:02:14;;;;;;;5.72;2.15;;;16.90;99.90;;;;;;5024209;28;20084;-76
2023/08/01 02:05:00;;;;;;;4.38;2.22;;;16.90;99.90;;;;;;5019877;28;20049;-76
2023/08/01 02:07:47;;;;;;;7.20;2.65;;;16.90;99.90;;;;;;5007619;28;20416;-76
2023/08/01 02:10:33;;;;;;;7.55;2.00;;;16.90;99.90;;;;;;5020303;28;20061;-76
2023/08/01 02:13:19;;;;;;;5.13;2.42;;;16.90;99.90;;;;;;5014266;28;20037;-76
2023/08/01 02:16:05;;;;;;;5.35;2.55;;;17.00;99.90;;;;;;5032124;28;20047;-76
2023/08/01 02:18:51;;;;;;;4.65;2.63;;;17.00;99.90;;;;;;5020575;28;20091;-76
2023/08/01 02:21:37;;;;;;;5.07;2.05;;;17.00;99.90;;;;;;5012512;28;20045;-76
2023/08/01 02:24:23;;;;;;;5.53;2.03;;;17.00;99.90;;;;;;5021387;28;20037;-76
2023/08/01 02:27:09;;;;;;;5.03;1.77;;;17.00;99.90;;;;;;5017416;28;20037;-76
2023/08/01 02:29:55;;;;;;;3.53;1.80;;;17.00;99.90;;;;;;5006548;28;20052;-76
2023/08/01 02:32:42;;;;;;;7.13;2.40;;;17.00;99.90;;;;;;5003873;28;20045;-76
2023/08/01 02:35:28;;;;;;;4.72;2.78;;;17.00;99.90;;;;;;5023076;28;20043;-76
2023/08/01 02:38:14;;;;;;;7.55;2.30;;;16.90;99.90;;;;;;5016606;28;20038;-76
2023/08/01 02:41:00;;;;;;;5.10;3.20;;;16.80;99.90;;;;;;5000265;28;20091;-77
2023/08/01 02:43:46;;;;;;;6.85;2.95;;;16.80;99.90;;;;;;5011626;28;20455;-77
2023/08/01 02:46:32;;;;;;;5.68;2.60;;;16.80;99.90;;;;;;5015684;28;20121;-79
2023/08/01 02:49:18;;;;;;;6.10;2.95;;;16.70;99.90;;;;;;5008066;28;20052;-79
2023/08/01 02:52:04;;;;;;;6.47;3.10;;;16.70;99.90;;;;;;5008996;28;20040;-79
2023/08/01 02:54:50;;;;;;;10.57;2.90;;;16.60;99.90;;;;;;5013406;28;20072;-79
2023/08/01 02:57:37;;;;;;;4.25;2.20;;;16.70;99.90;;;;;;5019894;28;20048;-79
2023/08/01 03:00:23;;;;;;;3.40;1.92;;;16.70;99.90;;;;;;5021982;28;20041;-79
2023/08/01 03:03:09;;;;;;;4.18;1.90;;;16.70;99.90;;;;;;5006372;28;20038;-79
2023/08/01 03:05:55;;;;;;;2.75;1.63;;;16.80;99.90;;;;;;5031287;28;20041;-79
2023/08/01 03:08:41;;;;;;;3.80;1.60;;;16.90;99.90;;;;;;5012428;28;20104;-79
2023/08/01 03:11:27;;;;;;;2.50;1.58;;;17.00;99.90;;;;;;4996285;28;20173;-79
2023/08/01 03:14:13;;;;;;;3.70;1.90;;;17.00;99.90;;;;;;4984870;28;20049;-79
2023/08/01 03:16:59;;;;;;;3.50;1.80;;;17.10;99.90;;;;;;5003467;28;20038;-79
2023/08/01 03:19:44;;;;;;;4.03;1.63;;;17.10;99.90;;;;;;4991836;28;20371;-79
2023/08/01 03:22:30;;;;;;;3.03;1.70;;;17.10;99.90;;;;;;4962519;28;20145;-79
2023/08/01 03:25:17;;;;;;;4.95;2.17;;;17.10;99.90;;;;;;4996577;28;20044;-79
2023/08/01 03:28:04;;;;;;;3.25;1.85;;;17.20;99.90;;;;;;4967266;28;20144;-79
2023/08/01 03:30:50;;;;;;;5.10;2.00;;;17.20;99.90;;;;;;4982169;28;20042;-79
2023/08/01 03:33:36;;;;;;;4.00;1.90;;;17.20;99.90;;;;;;4988326;28;20034;-78
2023/08/01 03:36:22;;;;;;;3.33;1.67;;;17.20;99.90;;;;;;4988777;28;20046;-78
2023/08/01 03:39:09;;;;;;;4.20;2.15;;;17.20;99.90;;;;;;5000246;28;20034;-79
2023/08/01 03:41:55;;;;;;;5.75;2.17;;;17.20;99.90;;;;;;4995748;28;20049;-79
2023/08/01 03:44:41;;;;;;;4.43;2.17;;;17.20;99.90;;;;;;4998301;28;20045;-79
2023/08/01 03:47:27;;;;;;;4.05;2.67;;;17.20;99.90;;;;;;5014244;28;20053;-79
2023/08/01 03:50:14;;;;;;;4.97;2.47;;;17.20;99.90;;;;;;4980386;28;20039;-79
2023/08/01 03:53:00;;;;;;;6.07;3.22;;;17.20;99.90;;;;;;4966435;28;20546;-79
2023/08/01 03:55:46;;;;;;;4.32;2.80;;;17.20;99.90;;;;;;4982178;28;20780;-79
2023/08/01 03:58:32;;;;;;;7.05;3.38;;;17.20;99.90;;;;;;4996767;28;20034;-78
2023/08/01 04:01:19;;;;;;;8.55;3.45;;;17.20;99.90;;;;;;4992530;28;20415;-79
2023/08/01 04:04:05;;;;;;;10.70;3.60;;;17.20;99.90;;;;;;4994334;28;20073;-79
2023/08/01 04:06:51;;;;;;;4.60;2.88;;;17.20;99.90;;;;;;4993539;28;20050;-79
2023/08/01 04:09:38;;;;;;;5.95;3.15;;;17.20;99.90;;;;;;4992924;28;20045;-79
2023/08/01 04:12:24;;;;;;;6.20;2.95;;;17.20;99.90;;;;;;5009402;28;20046;-79
2023/08/01 04:15:10;;;;;;;4.28;2.10;;;17.10;99.90;;;;;;5020578;28;20038;-79
2023/08/01 04:17:56;;;;;;;9.63;2.78;;;17.10;99.90;;;;;;5000446;28;20042;-79
2023/08/01 04:20:42;;;;;;;3.80;1.75;;;17.00;99.90;;;;;;5032571;28;20048;-78
2023/08/01 04:23:28;;;;;;;4.00;2.20;;;17.00;99.90;;;;;;5019273;28;20045;-78
2023/08/01 04:26:14;;;;;;;4.70;2.17;;;17.00;99.90;;;;;;5030526;28;20102;-78
2023/08/01 04:29:00;;;;;;;4.13;2.28;;;17.00;99.90;;;;;;4987266;28;20087;-79
2023/08/01 04:31:46;;;;;;;7.43;2.28;;;17.00;99.90;;;;;;5021929;28;20373;-79
2023/08/01 04:34:31;;;;;;;3.72;1.90;;;16.90;99.90;;;;;;4999769;28;20041;-79
2023/08/01 04:37:20;;;;;;;6.97;2.22;;;17.00;99.90;;;;;;5011944;28;20102;-79
2023/08/01 04:40:07;;;;;;;4.90;2.33;;;16.90;99.90;;;;;;5009636;28;20049;-79
2023/08/01 04:42:53;;;;;;;6.57;2.50;;;16.90;99.90;;;;;;5018996;28;20037;-79
2023/08/01 04:45:39;;;;;;;4.43;1.80;;;16.90;99.90;;;;;;5006573;28;20483;-79
2023/08/01 04:48:26;;;;;;;3.67;2.00;;;16.90;99.90;;;;;;4990577;28;20041;-79
2023/08/01 04:51:12;;;;;;;3.10;1.70;;;16.90;99.90;;;;;;5011386;28;20053;-79
2023/08/01 04:53:58;;;;;;;6.43;2.35;;;16.80;99.90;;;;;;4996915;28;20049;-79
2023/08/01 04:56:44;;;;;;;4.07;2.22;;;16.90;99.90;;;;;;4998926;28;20041;-78
2023/08/01 04:59:30;;;;;;;4.55;2.10;;;16.90;99.90;;;;;;5023533;28;20122;-78
2023/08/01 05:02:16;;;;;;;3.17;2.00;;;17.00;99.90;;;;;;5041952;28;20043;-78
2023/08/01 05:05:03;;;;;;;3.63;1.70;;;16.90;99.90;;;;;;5040671;28;20376;-78
2023/08/01 05:07:49;;;;;;;4.70;1.90;;;16.90;99.90;;;;;;5019905;28;20100;-78
2023/08/01 05:10:35;;;;;;;4.30;2.33;;;16.90;99.90;;;;;;5002643;28;20196;-79
2023/08/01 05:13:21;;;;;;;4.43;2.03;;;16.90;99.90;;;;;;5007601;28;20124;-79
2023/08/01 05:16:07;;;;;;;4.55;1.52;;;16.80;99.90;;;;;;5035916;28;20503;-78
2023/08/01 05:18:53;;;;;;;2.60;1.60;;;16.80;99.90;;;;;;5035788;28;20045;-79
2023/08/01 05:21:39;;;;;;;4.22;1.63;;;16.90;99.90;;;;;;5034810;28;20041;-79
2023/08/01 05:24:25;;;;;;;2.90;1.38;;;16.90;99.90;;;;;;5027262;28;20045;-78
2023/08/01 05:27:11;;;;;;;3.15;1.00;;;16.80;99.90;;;;;;5020925;28;20136;-79
2023/08/01 05:29:57;;;;;;;3.22;1.17;;;16.70;99.90;;;;;;5035986;28;20487;-79
2023/08/01 05:32:46;;;;;;;2.22;0.90;;;16.70;99.90;;;;;;5036064;28;20044;-79
2023/08/01 05:35:32;;;;;;;1.23;0.70;;;16.70;99.90;;;;;;5022561;28;20041;-79
2023/08/01 05:38:18;;;;;;;1.85;1.10;;;16.60;99.90;;;;;;5021699;28;20033;-79
2023/08/01 05:41:04;;;;;;;2.65;0.68;;;16.60;99.90;;;;;;5047764;28;20037;-79
2023/08/01 05:43:51;;;;;;;1.50;0.50;;;16.60;99.90;;;;;;5021612;28;20056;-79
2023/08/01 05:46:37;;;;;;;2.25;0.50;;;16.70;99.90;;;;;;5020011;28;20072;-79
2023/08/01 05:49:23;;;;;;;1.80;0.60;;;16.70;99.90;;;;;;5033169;28;20068;-79
2023/08/01 05:52:09;;;;;;;1.88;0.93;;;16.70;99.90;;;;;;5035182;28;20052;-79
2023/08/01 05:54:55;;;;;;;2.17;0.80;;;16.70;99.90;;;;;;5021370;28;20434;-79
2023/08/01 05:57:41;;;;;;;1.02;0.52;;;16.70;99.90;;;;;;5035374;28;20080;-79
2023/08/01 06:00:27;;;;;;;1.73;0.65;;;16.60;99.90;;;;;;5028337;28;20041;-79
2023/08/01 06:03:13;;;;;;;2.35;0.60;;;16.60;99.90;;;;;;5034811;28;20049;-79
2023/08/01 06:05:59;;;;;;;2.45;0.60;;;16.40;99.90;;;;;;5009574;28;20056;-79
2023/08/01 06:08:45;;;;;;;0.85;0.50;;;16.30;99.90;;;;;;5040107;28;20474;-79
2023/08/01 06:11:33;;;;;;;1.17;0.60;;;16.30;99.90;;;;;;5012188;28;20123;-79
2023/08/01 06:14:19;;;;;;;1.35;0.75;;;16.20;99.90;;;;;;5023468;28;20033;-79
2023/08/01 06:17:05;;;;;;;0.82;0.60;;;16.30;99.90;;;;;;5025757;28;20041;-79
2023/08/01 06:19:52;;;;;;;1.73;0.70;;;16.20;99.90;;;;;;5027475;28;20044;-79
2023/08/01 06:22:38;;;;;;;1.30;0.50;;;16.30;99.90;;;;;;5039819;28;20116;-79
2023/08/01 06:25:24;;;;;;;0.88;0.60;;;16.30;99.90;;;;;;5040455;28;20033;-79
2023/08/01 06:28:10;;;;;;;1.70;0.60;;;16.20;99.90;;;;;;4988023;28;20053;-79
2023/08/01 06:30:56;;;;;;;2.72;0.98;;;16.30;99.90;;;;;;4991108;28;20046;-79
2023/08/01 06:33:42;;;;;;;1.30;0.80;;;16.20;99.90;;;;;;5015390;28;20033;-79
2023/08/01 06:36:29;;;;;;;1.67;0.90;;;16.30;99.90;;;;;;5020459;28;20068;-79
2023/08/01 06:39:15;;;;;;;2.13;0.82;;;16.10;99.90;;;;;;5020488;28;20041;-79
2023/08/01 06:42:01;;;;;;;2.17;0.80;;;16.20;99.90;;;;;;5001858;28;20049;-79
2023/08/01 06:44:47;;;;;;;1.17;0.80;;;16.10;99.90;;;;;;5014545;28;20498;-79
2023/08/01 06:47:34;;;;;;;3.65;1.17;;;16.10;99.90;;;;;;5014483;28;20030;-79
2023/08/01 06:50:20;;;;;;;2.85;0.98;;;16.20;99.90;;;;;;5029453;28;20037;-79
2023/08/01 06:53:08;;;;;;;2.15;1.10;;;16.10;99.90;;;;;;5021424;28;20075;-80
2023/08/01 06:55:54;;;;;;;3.33;1.10;;;16.10;99.90;;;;;;5000607;28;20040;-79
2023/08/01 06:58:40;;;;;;;2.45;0.90;;;16.20;99.90;;;;;;5018277;28;20114;-80
2023/08/01 07:01:26;;;;;;;2.70;1.08;;;16.10;99.90;;;;;;5025776;28;20062;-80
2023/08/01 07:04:12;;;;;;;2.90;1.45;;;16.20;99.90;;;;;;5022839;28;20441;-79
2023/08/01 07:06:58;;;;;;;2.63;1.35;;;16.20;99.90;;;;;;5002188;28;20056;-79
2023/08/01 07:09:46;;;;;;;3.22;1.52;;;16.20;99.90;;;;;;5015588;28;20042;-79
2023/08/01 07:12:32;;;;;;;3.08;1.67;;;16.30;99.90;;;;;;5009956;28;20075;-79
2023/08/01 07:15:18;;;;;;;3.55;1.52;;;16.30;99.90;;;;;;5009913;28;20458;-79
2023/08/01 07:18:04;;;;;;;4.60;1.60;;;16.20;99.90;;;;;;4996632;28;20038;-79
2023/08/01 07:21:05;;;;;;;6.28;2.00;;;16.20;99.90;;;;;;5007490;28;20383;-79
2023/08/01 07:23:51;;;;;;;3.67;2.00;;;16.20;99.90;;;;;;5008486;28;20805;-79
2023/08/01 07:26:38;;;;;;;7.05;2.67;;;16.20;99.90;;;;;;5012152;28;20120;-79
2023/08/01 07:29:24;;;;;;;4.72;2.20;;;16.20;99.90;;;;;;5013901;28;20049;-79
2023/08/01 07:32:10;;;;;;;4.68;2.17;;;16.20;99.90;;;;;;5018583;28;20056;-79
2023/08/01 07:34:56;;;;;;;6.32;2.28;;;16.30;99.90;;;;;;5032159;28;20091;-79
2023/08/01 07:37:42;;;;;;;4.53;2.00;;;16.30;99.90;;;;;;5011955;28;20042;-79
2023/08/01 07:40:28;;;;;;;6.97;2.15;;;16.30;99.90;;;;;;5010483;28;20041;-79
2023/08/01 07:43:15;;;;;;;3.20;1.85;;;16.40;99.90;;;;;;5009897;28;20045;-79
2023/08/01 07:46:03;;;;;;;4.88;1.80;;;16.30;99.90;;;;;;5006221;28;20052;-79
2023/08/01 07:48:51;;;;;;;4.43;1.80;;;16.30;99.90;;;;;;5010051;28;20111;-79
2023/08/01 07:51:37;;;;;;;3.28;1.90;;;16.20;99.90;;;;;;5011982;28;20048;-79
2023/08/01 07:54:24;;;;;;;6.55;2.33;;;16.20;99.90;;;;;;5018680;28;20573;-79
2023/08/01 07:57:10;;;;;;;4.25;1.77;;;16.10;99.90;;;;;;5035488;28;20028;-79
2023/08/01 07:59:56;;;;;;;4.07;1.88;;;16.20;99.90;;;;;;5039661;28;20051;-78
2023/08/01 08:02:44;;;;;;;5.00;2.38;;;16.20;99.90;;;;;;5040346;28;20537;-79
2023/08/01 08:05:30;;;;;;;3.60;2.30;;;16.20;99.90;;;;;;5017501;28;20045;-78
2023/08/01 08:08:16;;;;;;;6.70;2.75;;;16.20;99.90;;;;;;5019469;28;20385;-79
2023/08/01 08:11:02;;;;;;;10.88;3.50;;;16.10;99.90;;;;;;4987078;28;20057;-78
2023/08/01 08:13:48;;;;;;;9.68;3.42;;;16.00;99.90;;;;;;5026314;28;20037;-79
2023/08/01 08:16:34;;;;;;;7.70;3.45;;;16.00;99.90;;;;;;5024150;28;20128;-79
2023/08/01 08:19:20;;;;;;;10.15;4.18;;;16.10;99.90;;;;;;4998867;28;20128;-79
2023/08/01 08:22:06;;;;;;;10.55;4.57;;;16.10;99.90;;;;;;5012674;28;20184;-79
2023/08/01 08:24:52;;;;;;;11.27;5.03;;;16.10;99.90;;;;;;5000379;28;20123;-78
2023/08/01 08:27:38;;;;;;;9.23;4.40;;;16.10;99.90;;;;;;5005174;28;20069;-76
2023/08/01 08:30:25;;;;;;;10.27;4.55;;;16.20;99.90;;;;;;4998688;28;20042;-75
2023/08/01 08:33:19;;;;;;;10.50;5.07;;;16.30;99.90;;;;;;5007158;28;20365;-75
2023/08/01 08:36:05;;;;;;;12.57;4.93;;;16.30;99.90;;;;;;5021404;28;20118;-76
2023/08/01 08:38:51;;;;;;;12.45;4.88;;;16.30;99.90;;;;;;5017954;28;20050;-76
2023/08/01 08:41:39;;;;;;;8.27;4.47;;;16.40;99.90;;;;;;5011713;28;20042;-75
2023/08/01 08:44:29;;;;;;;7.95;4.63;;;16.50;99.90;;;;;;5021208;28;20041;-75
2023/08/01 08:47:15;;;;;;;8.35;4.40;;;16.40;99.90;;;;;;5021889;28;20049;-76
2023/08/01 08:50:01;;;;;;;8.73;4.60;;;16.40;99.90;;;;;;5036352;28;20083;-75
2023/08/01 08:52:47;;;;;;;8.48;4.70;;;16.50;99.90;;;;;;5010699;28;20037;-76
2023/08/01 08:55:34;;;;;;;11.50;5.40;;;16.60;99.90;;;;;;5036041;28;20053;-75
2023/08/01 08:58:21;;;;;;;11.70;4.80;;;16.60;99.90;;;;;;5020574;28;20127;-75
2023/08/01 09:01:09;;;;;;;8.68;4.75;;;16.70;99.90;;;;;;5020213;28;20533;-75
2023/08/01 09:03:56;;;;;;;10.93;5.23;;;16.70;99.90;;;;;;5020713;28;20838;-75
2023/08/01 09:06:48;;;;;;;10.73;4.97;;;16.80;99.90;;;;;;5025503;28;20053;-76
2023/08/01 09:09:34;;;;;;;6.82;4.47;;;17.00;99.90;;;;;;5041075;28;20287;-75
2023/08/01 09:12:22;;;;;;;8.43;4.32;;;17.00;99.90;;;;;;5025176;28;20049;-75
2023/08/01 09:15:08;;;;;;;9.68;4.93;;;16.90;99.90;;;;;;5034176;28;20033;-75
2023/08/01 09:18:00;;;;;;;7.45;3.97;;;16.90;99.90;;;;;;5017360;28;20369;-75
2023/08/01 09:20:47;;;;;;;9.35;3.90;;;16.90;99.90;;;;;;5021219;28;20464;-76
2023/08/01 09:23:33;;;;;;;9.67;4.77;;;17.00;99.90;;;;;;5008862;28;20702;-75
2023/08/01 09:26:20;;;;;;;7.82;4.55;;;17.10;99.90;;;;;;5001422;28;20073;-75
2023/08/01 09:29:06;;;;;;;9.65;4.10;;;17.20;99.90;;;;;;5015376;28;20463;-76
2023/08/01 09:31:54;;;;;;;8.75;4.28;;;17.30;99.90;;;;;;5006470;28;20040;-75
2023/08/01 09:34:41;;;;;;;14.25;4.50;;;17.30;99.90;;;;;;5001406;28;20050;-75
2023/08/01 09:37:36;;;;;;;9.82;4.55;;;17.40;99.90;;;;;;5015993;28;20041;-75
2023/08/01 09:40:22;;;;;;;12.10;3.65;;;17.50;99.90;;;;;;5021928;28;20493;-76
2023/08/01 09:43:10;;;;;;;8.80;3.60;;;17.60;99.90;;;;;;5032937;28;20045;-76
2023/08/01 09:45:56;;;;;;;9.15;3.40;;;17.60;99.90;;;;;;4999590;28;20046;-76
2023/08/01 09:48:42;;;;;;;7.25;3.67;;;17.50;99.90;;;;;;4998878;28;20132;-76
2023/08/01 09:51:28;;;;;;;8.82;3.40;;;17.60;99.90;;;;;;5022177;28;20065;-76
2023/08/01 09:54:17;;;;;;;7.95;3.38;;;17.80;99.90;;;;;;5026017;28;20096;-76
2023/08/01 09:57:04;;;;;;;8.60;3.63;;;17.90;99.90;;;;;;5036262;28;20670;-76
2023/08/01 09:59:51;;;;;;;8.02;3.60;;;18.00;99.90;;;;;;5040221;28;20072;-76
2023/08/01 10:02:37;;;;;;;8.53;2.90;;;18.20;99.90;;;;;;5022222;28;20045;-77
2023/08/01 10:05:23;;;;;;;9.65;3.10;;;18.20;99.90;;;;;;5020577;28;20052;-76
2023/08/01 10:08:09;;;;;;;6.80;2.78;;;18.30;99.90;;;;;;5020430;28;20068;-76
2023/08/01 10:10:58;;;;;;;7.63;2.60;;;18.30;99.90;;;;;;5006427;28;20056;-77
2023/08/01 10:13:44;;;;;;;6.38;2.75;;;18.20;99.90;;;;;;5026539;28;20030;-76
2023/08/01 10:16:32;;;;;;;7.65;3.10;;;18.20;99.90;;;;;;5032699;28;20038;-76
2023/08/01 10:19:17;;;;;;;9.77;2.92;;;18.30;99.90;;;;;;5020367;28;20041;-76
2023/08/01 10:22:05;;;;;;;7.80;2.63;;;18.30;99.90;;;;;;5019579;28;20052;-76
2023/08/01 10:24:51;;;;;;;8.10;2.85;;;18.30;99.90;;;;;;5033859;28;20038;-76
2023/08/01 10:27:37;;;;;;;5.30;2.42;;;18.30;99.90;;;;;;5035815;28;20037;-75
2023/08/01 10:30:26;;;;;;;7.18;2.38;;;18.20;99.90;;;;;;5035019;28;20045;-76
2023/08/01 10:33:13;;;;;;;4.35;2.30;;;18.30;99.90;;;;;;5021283;28;20076;-77
2023/08/01 10:35:59;;;;;;;5.70;2.15;;;18.50;99.90;;;;;;5032372;28;20045;-75
2023/08/01 10:38:56;;;;;;;4.80;2.15;;;18.60;99.90;;;;;;5019056;28;20408;-75
2023/08/01 10:41:44;;;;;;;5.60;2.30;;;18.90;99.90;;;;;;5004007;28;20095;-76
2023/08/01 10:44:31;;;;;;;6.80;2.30;;;19.00;99.90;;;;;;5020647;28;20060;-76
2023/08/01 10:47:27;;;;;;;6.35;2.17;;;19.00;99.90;;;;;;5020250;28;20030;-76
2023/08/01 10:50:14;;;;;;;4.72;2.55;;;19.20;99.90;;;;;;5034792;28;20505;-76
2023/08/01 10:53:08;;;;;;;5.47;2.60;;;19.00;99.90;;;;;;5022289;28;20106;-78
2023/08/01 10:55:54;;;;;;;4.90;2.42;;;18.80;99.90;;;;;;5006004;28;20577;-75
2023/08/01 10:58:40;;;;;;;6.63;2.50;;;19.00;99.90;;;;;;5025470;28;20036;-76
2023/08/01 11:01:28;;;;;;;6.63;2.40;;;19.30;99.90;;;;;;5035841;28;20057;-76
2023/08/01 11:04:18;;;;;;;5.15;2.28;;;19.60;99.90;;;;;;5034139;28;20580;-75
2023/08/01 11:07:04;;;;;;;6.63;2.42;;;19.60;99.90;;;;;;5016838;28;20050;-80
2023/08/01 11:10:01;;;;;;;5.35;2.83;;;19.70;99.90;;;;;;5001032;28;20462;-79
2023/08/01 11:12:47;;;;;;;4.53;1.90;;;19.60;99.90;;;;;;5001436;28;20052;-79
2023/08/01 11:15:37;;;;;;;4.35;2.08;;;19.40;99.90;;;;;;5029854;28;20033;-78
2023/08/01 11:18:23;;;;;;;4.25;1.80;;;19.50;99.90;;;;;;5040422;28;20041;-78
2023/08/01 11:21:09;;;;;;;6.22;1.77;;;19.60;99.90;;;;;;5037623;28;20055;-79
2023/08/01 11:23:56;;;;;;;3.15;1.50;;;19.70;99.90;;;;;;5023772;28;20554;-78
2023/08/01 11:26:46;;;;;;;5.80;1.90;;;20.00;99.90;;;;;;5021238;28;20040;-78
2023/08/01 11:29:32;;;;;;;5.70;1.90;;;19.80;99.90;;;;;;5037375;28;20158;-79
2023/08/01 11:32:19;;;;;;;4.57;1.80;;;19.60;99.90;;;;;;5001882;28;20033;-78
2023/08/01 11:35:06;;;;;;;4.47;1.90;;;19.60;99.90;;;;;;5028210;28;20632;-78
2023/08/01 11:37:52;;;;;;;4.90;1.70;;;19.70;99.90;;;;;;5013346;28;20061;-78
2023/08/01 11:40:38;;;;;;;6.63;1.90;;;19.60;99.90;;;;;;5017727;28;20077;-78
2023/08/01 11:43:24;;;;;;;7.65;2.40;;;19.50;99.90;;;;;;5019531;28;20079;-78
2023/08/01 11:46:10;;;;;;;5.80;2.28;;;19.40;99.90;;;;;;5018142;28;20033;-76
2023/08/01 11:48:56;;;;;;;4.70;2.08;;;19.40;99.90;;;;;;5034182;28;20042;-78
2023/08/01 11:51:43;;;;;;;4.22;1.80;;;19.40;99.90;;;;;;5023332;28;20393;-78
2023/08/01 11:54:29;;;;;;;5.53;1.70;;;19.60;99.90;;;;;;5018393;28;20071;-78
2023/08/01 11:57:15;;;;;;;4.13;1.90;;;19.60;99.90;;;;;;5017893;28;20478;-78
2023/08/01 12:00:01;;;;;;;3.97;1.75;;;19.50;99.90;;;;;;5018379;28;20037;-78
2023/08/01 12:02:47;;;;;;;4.47;1.98;;;19.60;99.90;;;;;;5028366;28;20116;-78
2023/08/01 12:05:33;;;;;;;5.22;1.60;;;19.70;99.90;;;;;;5036466;28;20040;-78
2023/08/01 12:08:19;;;;;;;3.90;1.63;;;20.10;99.90;;;;;;5038242;28;20056;-78
2023/08/01 12:11:05;;;;;;;3.10;1.60;;;20.40;99.90;;;;;;5028349;28;20107;-79
2023/08/01 12:14:04;;;;;;;3.67;1.52;;;20.70;99.90;;;;;;5037884;28;20140;-77
2023/08/01 12:16:50;;;;;;;3.63;1.63;;;20.40;99.90;;;;;;5017346;28;20042;-78
2023/08/01 12:19:37;;;;;;;6.07;1.87;;;20.30;99.90;;;;;;5014955;28;20072;-78
2023/08/01 12:22:23;;;;;;;6.85;1.67;;;20.10;99.90;;;;;;5013826;28;20045;-78
2023/08/01 12:25:09;;;;;;;4.10;1.42;;;20.00;99.90;;;;;;4986770;28;20084;-78
2023/08/01 12:27:55;;;;;;;3.13;1.65;;;20.20;99.90;;;;;;4996494;28;20475;-78
2023/08/01 12:30:41;;;;;;;4.38;1.70;;;20.50;99.90;;;;;;5001937;28;20077;-79
2023/08/01 12:33:27;;;;;;;5.57;1.70;;;20.60;99.90;;;;;;5025940;28;20600;-78
2023/08/01 12:36:14;;;;;;;3.08;1.45;;;20.40;99.90;;;;;;5032543;28;20203;-78
2023/08/01 12:39:00;;;;;;;4.97;1.60;;;20.50;99.90;;;;;;5023896;28;20702;-75
2023/08/01 12:41:46;;;;;;;2.83;1.40;;;20.60;99.90;;;;;;5040891;28;20469;-78
2023/08/01 12:44:32;;;;;;;4.32;1.58;;;20.30;99.90;;;;;;5028198;28;20048;-78
2023/08/01 12:47:18;;;;;;;3.38;1.63;;;20.10;99.90;;;;;;5013142;28;20042;-77
2023/08/01 12:50:04;;;;;;;3.38;1.40;;;20.20;99.90;;;;;;5032817;28;20042;-78
2023/08/01 12:52:50;;;;;;;5.72;1.90;;;19.90;99.90;;;;;;5019249;28;20408;-78
2023/08/01 12:55:36;;;;;;;3.58;1.50;;;19.70;99.90;;;;;;5005388;28;20366;-78
2023/08/01 12:58:22;;;;;;;3.75;2.08;;;19.80;99.90;;;;;;5005660;28;20065;-75
2023/08/01 13:01:08;;;;;;;5.60;2.20;;;19.80;99.90;;;;;;4998829;28;20111;-75
2023/08/01 13:03:54;;;;;;;5.13;2.22;;;19.80;99.90;;;;;;5006655;28;20077;-75
2023/08/01 13:06:40;;;;;;;4.88;1.60;;;19.90;99.90;;;;;;5004579;28;20457;-75
2023/08/01 13:09:26;;;;;;;4.95;2.05;;;20.00;99.90;;;;;;5032845;28;20103;-75
2023/08/01 13:12:12;;;;;;;3.97;1.70;;;20.20;99.90;;;;;;5032685;28;20073;-75
2023/08/01 13:14:58;;;;;;;8.80;1.95;;;20.50;99.90;;;;;;5032836;28;20482;-75
2023/08/01 13:17:44;;;;;;;3.97;1.80;;;20.20;99.90;;;;;;5032790;28;20073;-75
2023/08/01 13:20:30;;;;;;;3.03;1.70;;;20.40;99.90;;;;;;5022429;28;20041;-75
2023/08/01 13:23:16;;;;;;;4.13;1.83;;;20.50;99.90;;;;;;5022295;28;20037;-75
2023/08/01 13:26:02;;;;;;;4.18;2.03;;;20.30;99.90;;;;;;4996650;28;20068;-74
2023/08/01 13:28:48;;;;;;;3.00;1.75;;;20.10;99.90;;;;;;5034028;28;20445;-75
2023/08/01 13:31:34;;;;;;;4.97;2.47;;;20.00;99.90;;;;;;5013960;28;20053;-75
2023/08/01 13:34:20;;;;;;;6.90;2.50;;;19.90;99.90;;;;;;5037114;28;20064;-75
2023/08/01 13:37:06;;;;;;;5.35;2.45;;;19.80;99.90;;;;;;5032388;28;20127;-75
2023/08/01 13:39:52;;;;;;;4.28;2.15;;;19.70;99.90;;;;;;5055462;28;20043;-75
2023/08/01 13:42:38;;;;;;;5.07;2.00;;;19.60;99.90;;;;;;5032030;28;20428;-76
2023/08/01 13:45:26;;;;;;;3.75;1.90;;;19.60;99.90;;;;;;5020662;28;20454;-74
2023/08/01 13:48:12;;;;;;;4.63;1.80;;;19.70;99.90;;;;;;5013010;28;20058;-75
2023/08/01 13:50:58;;;;;;;7.40;2.13;;;19.80;99.90;;;;;;5015625;28;20048;-75
2023/08/01 13:53:45;;;;;;;4.65;1.77;;;20.00;99.90;;;;;;5033825;28;20067;-75
2023/08/01 13:56:31;;;;;;;4.88;1.58;;;20.10;99.90;;;;;;5009684;28;20053;-74
2023/08/01 13:59:17;;;;;;;4.70;2.35;;;19.90;99.90;;;;;;5013435;28;20037;-74
2023/08/01 14:02:04;;;;;;;2.95;1.58;;;19.50;99.90;;;;;;5027213;28;20033;-75
2023/08/01 14:04:53;;;;;;;5.75;2.13;;;19.20;99.90;;;;;;5011866;28;20042;-75
2023/08/01 14:07:40;;;;;;;4.75;1.80;;;19.00;99.90;;;;;;5011167;28;20107;-76
2023/08/01 14:10:28;;;;;;;5.38;1.92;;;19.00;99.90;;;;;;5012435;28;20045;-75
2023/08/01 14:13:16;;;;;;;4.30;2.45;;;19.00;99.90;;;;;;5015082;28;20046;-75
2023/08/01 14:16:02;;;;;;;3.63;1.98;;;18.90;99.90;;;;;;5021180;28;20098;-75
2023/08/01 14:18:49;;;;;;;3.35;1.60;;;18.70;99.90;;;;;;5032278;28;20037;-75
2023/08/01 14:21:35;;;;;;;2.67;1.30;;;18.70;99.90;;;;;;5037316;28;20053;-75
2023/08/01 14:24:21;;;;;;;2.92;1.50;;;18.60;99.90;;;;;;5019354;28;20457;-74